Time;durP1;ratioP1;P1;durP2;ratioP2;P2;SDS_P1;SDS_P2;PMS_P1;PMS_P2;Temp;Humidity;BMP_temperature;BMP_pressure;BME280_temperature;BME280_humidity;BME280_pressure;Samples;Min_cycle;Max_cycle;Signal;HPM_P1;HPM_P2
2022/07/13 00:00:12;;;;;;;2.30;1.42;;;22.70;62.80;;;;;;5051838;28;20060;-72
2022/07/13 00:02:40;;;;;;;2.53;1.90;;;22.70;62.80;;;;;;5066731;28;20505;-72
2022/07/13 00:05:07;;;;;;;2.15;1.60;;;22.70;62.80;;;;;;5050250;28;20059;-73
2022/07/13 00:07:34;;;;;;;4.18;1.75;;;22.70;62.80;;;;;;5051688;28;20059;-73
2022/07/13 00:10:01;;;;;;;2.42;1.50;;;22.70;62.80;;;;;;5049663;28;20128;-72
2022/07/13 00:12:28;;;;;;;2.90;1.50;;;22.80;62.80;;;;;;5050334;28;20067;-72
2022/07/13 00:14:54;;;;;;;1.92;1.40;;;22.70;62.80;;;;;;5051476;28;20063;-72
2022/07/13 00:17:21;;;;;;;2.05;1.45;;;22.70;62.80;;;;;;5049824;28;20417;-72
2022/07/13 00:19:49;;;;;;;2.20;1.38;;;22.70;62.80;;;;;;5049820;28;20048;-73
2022/07/13 00:22:17;;;;;;;2.22;1.50;;;22.60;62.70;;;;;;5051631;28;20053;-73
2022/07/13 00:24:43;;;;;;;1.60;1.40;;;22.60;62.80;;;;;;5049660;28;20053;-72
2022/07/13 00:27:10;;;;;;;2.03;1.40;;;22.70;64.10;;;;;;5066864;28;20056;-73
2022/07/13 00:29:37;;;;;;;2.03;1.50;;;22.60;62.80;;;;;;5051401;28;20071;-72
2022/07/13 00:32:04;;;;;;;2.45;1.90;;;22.60;62.70;;;;;;5049939;28;20044;-72
2022/07/13 00:34:32;;;;;;;1.95;1.60;;;22.60;62.70;;;;;;5049715;28;20057;-73
2022/07/13 00:37:00;;;;;;;1.90;1.52;;;22.60;62.70;;;;;;5033925;28;20139;-72
2022/07/13 00:39:27;;;;;;;1.98;1.45;;;22.80;62.80;;;;;;5049186;28;20045;-72
2022/07/13 00:41:54;;;;;;;1.75;1.35;;;22.60;62.70;;;;;;5050489;28;20101;-72
2022/07/13 00:44:20;;;;;;;3.70;1.70;;;22.50;64.40;;;;;;5049618;28;20053;-72
2022/07/13 00:46:51;;;;;;;2.80;1.55;;;22.60;62.70;;;;;;5049713;28;20063;-72
2022/07/13 00:49:17;;;;;;;3.55;1.50;;;22.60;62.70;;;;;;5049860;28;20063;-72
2022/07/13 00:51:44;;;;;;;2.33;1.30;;;22.60;62.70;;;;;;5050756;28;20040;-72
2022/07/13 00:54:12;;;;;;;1.98;1.50;;;22.60;62.70;;;;;;5048602;28;20128;-73
2022/07/13 00:56:39;;;;;;;1.98;1.50;;;22.60;62.70;;;;;;5049389;28;20080;-73
2022/07/13 00:59:06;;;;;;;2.47;1.40;;;22.60;62.70;;;;;;5049266;28;20041;-73
2022/07/13 01:01:33;;;;;;;1.90;1.35;;;22.60;62.70;;;;;;5049107;28;20064;-72
2022/07/13 01:03:59;;;;;;;2.50;1.40;;;22.60;62.70;;;;;;5048744;28;20132;-73
2022/07/13 01:06:27;;;;;;;2.28;1.45;;;22.60;62.70;;;;;;5049458;28;20056;-72
2022/07/13 01:08:53;;;;;;;2.95;1.50;;;22.60;62.70;;;;;;5049056;28;20720;-72
2022/07/13 01:11:21;;;;;;;1.77;1.40;;;22.60;62.70;;;;;;5049188;28;20053;-72
2022/07/13 01:13:48;;;;;;;2.35;1.50;;;22.50;62.70;;;;;;5048903;28;20057;-73
2022/07/13 01:16:15;;;;;;;1.83;1.58;;;22.50;62.70;;;;;;5050529;28;20430;-72
2022/07/13 01:18:41;;;;;;;1.90;1.50;;;22.50;62.70;;;;;;5049315;28;20045;-72
2022/07/13 01:21:08;;;;;;;1.70;1.30;;;22.60;62.70;;;;;;5049125;28;20064;-72
2022/07/13 01:23:36;;;;;;;2.10;1.38;;;22.50;62.70;;;;;;5048702;28;20508;-72
2022/07/13 01:26:03;;;;;;;2.05;1.65;;;22.50;62.70;;;;;;5050189;28;20128;-72
2022/07/13 01:28:30;;;;;;;2.20;1.60;;;22.50;62.70;;;;;;5049077;28;20132;-72
2022/07/13 01:30:56;;;;;;;1.90;1.50;;;22.50;62.70;;;;;;5048269;28;20475;-72
2022/07/13 01:33:23;;;;;;;1.77;1.30;;;22.50;62.70;;;;;;5048832;28;20132;-72
2022/07/13 01:35:50;;;;;;;1.65;1.33;;;22.50;62.70;;;;;;5049020;28;20501;-72
2022/07/13 01:38:17;;;;;;;1.30;1.20;;;22.50;62.70;;;;;;5049686;28;20684;-72
2022/07/13 01:40:45;;;;;;;1.88;1.40;;;22.50;62.70;;;;;;5048736;28;20071;-72
2022/07/13 01:43:12;;;;;;;2.25;1.45;;;22.50;62.70;;;;;;5048481;28;20076;-72
2022/07/13 01:45:39;;;;;;;2.00;1.50;;;22.50;62.70;;;;;;5048701;28;20057;-72
2022/07/13 01:48:07;;;;;;;1.65;1.30;;;22.50;62.70;;;;;;5049604;28;20409;-72
2022/07/13 01:50:33;;;;;;;2.20;1.60;;;22.50;62.70;;;;;;5048441;28;20060;-73
2022/07/13 01:53:00;;;;;;;2.22;1.45;;;22.50;62.70;;;;;;5047932;28;20064;-72
2022/07/13 01:55:27;;;;;;;2.42;1.40;;;22.50;62.70;;;;;;5048303;28;20056;-73
2022/07/13 01:57:58;;;;;;;1.95;1.38;;;22.50;62.80;;;;;;5049595;28;20128;-72
2022/07/13 02:00:25;;;;;;;1.50;1.25;;;22.50;62.70;;;;;;5047749;28;20055;-72
2022/07/13 02:02:52;;;;;;;1.55;1.40;;;22.50;62.80;;;;;;5049315;28;20048;-72
2022/07/13 02:05:18;;;;;;;1.73;1.40;;;22.50;62.80;;;;;;5047780;28;20713;-72
2022/07/13 02:07:45;;;;;;;2.58;1.60;;;22.50;62.80;;;;;;5047846;28;20128;-72
2022/07/13 02:10:13;;;;;;;1.80;1.20;;;22.50;62.80;;;;;;5048313;28;20555;-72
2022/07/13 02:12:40;;;;;;;1.92;1.50;;;22.40;62.70;;;;;;5049514;28;20132;-72
2022/07/13 02:15:09;;;;;;;1.88;1.38;;;22.40;62.70;;;;;;5049319;28;20045;-73
2022/07/13 02:17:36;;;;;;;1.52;1.23;;;22.40;62.70;;;;;;5049224;28;20592;-73
2022/07/13 02:20:03;;;;;;;2.00;1.45;;;22.40;62.80;;;;;;5047540;28;20067;-72
2022/07/13 02:22:41;;;;;;;2.22;1.55;;;22.40;62.70;;;;;;5064736;28;20716;-72
2022/07/13 02:25:09;;;;;;;2.13;1.40;;;22.40;62.70;;;;;;5048902;28;20048;-72
2022/07/13 02:27:36;;;;;;;1.48;1.38;;;22.40;62.80;;;;;;5047521;28;20045;-72
2022/07/13 02:30:03;;;;;;;2.60;1.63;;;22.40;62.70;;;;;;5048014;28;20084;-73
2022/07/13 02:32:31;;;;;;;1.80;1.42;;;22.40;62.80;;;;;;5047940;28;20087;-72
2022/07/13 02:34:58;;;;;;;2.88;1.40;;;22.40;62.70;;;;;;5047124;28;20068;-72
2022/07/13 02:37:25;;;;;;;2.13;1.40;;;22.40;62.70;;;;;;5047783;28;20053;-72
2022/07/13 02:39:55;;;;;;;1.77;1.30;;;22.40;62.70;;;;;;5047502;28;20049;-72
2022/07/13 02:42:22;;;;;;;1.70;1.40;;;22.40;62.70;;;;;;5048920;28;20049;-72
2022/07/13 02:44:50;;;;;;;1.67;1.35;;;22.40;62.70;;;;;;5046870;28;20052;-72
2022/07/13 02:47:17;;;;;;;1.70;1.25;;;22.40;62.70;;;;;;5048700;28;20053;-72
2022/07/13 02:49:45;;;;;;;1.70;1.38;;;22.40;62.70;;;;;;5047528;28;20545;-72
2022/07/13 02:52:12;;;;;;;2.40;1.50;;;22.40;62.70;;;;;;5047512;28;20053;-72
2022/07/13 02:54:38;;;;;;;2.05;1.50;;;22.40;62.70;;;;;;5047185;28;20506;-73
2022/07/13 02:57:06;;;;;;;1.48;1.25;;;22.40;63.00;;;;;;5047460;28;20049;-72
2022/07/13 02:59:33;;;;;;;1.67;1.40;;;22.40;62.70;;;;;;5048541;28;20051;-72
2022/07/13 03:01:59;;;;;;;2.05;1.45;;;22.40;62.70;;;;;;5047043;28;20053;-72
2022/07/13 03:04:26;;;;;;;1.38;1.15;;;22.40;62.80;;;;;;5047116;28;20056;-72
2022/07/13 03:06:54;;;;;;;1.27;1.17;;;22.40;62.70;;;;;;5048684;28;20049;-72
2022/07/13 03:09:21;;;;;;;2.33;1.60;;;22.40;62.70;;;;;;5047707;28;20141;-72
2022/07/13 03:11:47;;;;;;;1.77;1.40;;;22.40;62.70;;;;;;5047406;28;20055;-72
2022/07/13 03:14:14;;;;;;;2.72;1.33;;;22.40;62.70;;;;;;5047321;28;20052;-72
2022/07/13 03:16:41;;;;;;;2.05;1.33;;;22.40;62.70;;;;;;5046958;28;20136;-72
2022/07/13 03:19:08;;;;;;;1.80;1.30;;;22.30;62.70;;;;;;5046793;28;20136;-72
2022/07/13 03:21:35;;;;;;;1.80;1.30;;;22.40;62.70;;;;;;5049530;28;20524;-72
2022/07/13 03:24:03;;;;;;;1.67;1.30;;;22.30;62.70;;;;;;5051561;28;20073;-72
2022/07/13 03:26:30;;;;;;;1.33;1.23;;;22.30;62.70;;;;;;5051245;28;20056;-72
2022/07/13 03:28:57;;;;;;;1.65;1.50;;;22.40;62.70;;;;;;5051263;28;20053;-72
2022/07/13 03:31:24;;;;;;;1.58;1.27;;;22.40;62.70;;;;;;5051263;28;20084;-72
2022/07/13 03:33:51;;;;;;;2.50;1.20;;;22.30;62.70;;;;;;5050150;28;20520;-72
2022/07/13 03:36:17;;;;;;;1.95;1.45;;;22.30;62.70;;;;;;5050989;28;20134;-72
2022/07/13 03:38:44;;;;;;;1.65;1.30;;;22.30;62.70;;;;;;5051336;28;20557;-73
2022/07/13 03:41:12;;;;;;;1.60;1.40;;;22.50;62.80;;;;;;5052262;28;20143;-72
2022/07/13 03:43:39;;;;;;;1.55;1.30;;;22.40;62.70;;;;;;5050729;28;20060;-72
2022/07/13 03:46:06;;;;;;;2.10;1.60;;;22.30;62.70;;;;;;5052184;28;20059;-72
2022/07/13 03:48:32;;;;;;;1.60;1.30;;;22.30;62.70;;;;;;5050412;28;20477;-72
2022/07/13 03:50:59;;;;;;;2.00;1.40;;;22.30;62.80;;;;;;5050831;28;20135;-72
2022/07/13 03:53:26;;;;;;;1.60;1.20;;;22.30;62.70;;;;;;5050377;28;20080;-72
2022/07/13 03:55:52;;;;;;;1.52;1.35;;;22.40;64.30;;;;;;5050869;28;20056;-73
2022/07/13 03:58:20;;;;;;;1.90;1.42;;;22.30;62.70;;;;;;5050106;28;20134;-73
2022/07/13 04:00:47;;;;;;;1.70;1.40;;;22.30;62.70;;;;;;5049902;28;20545;-72
2022/07/13 04:03:14;;;;;;;2.05;1.50;;;22.20;63.90;;;;;;5051269;28;20037;-72
2022/07/13 04:05:40;;;;;;;1.65;1.40;;;22.30;62.70;;;;;;5050403;28;20135;-74
2022/07/13 04:08:07;;;;;;;1.48;1.30;;;22.30;62.70;;;;;;5050686;28;20063;-74
2022/07/13 04:10:34;;;;;;;1.65;1.38;;;22.30;62.70;;;;;;5050579;28;20059;-74
2022/07/13 04:13:00;;;;;;;1.60;1.40;;;22.30;62.70;;;;;;5049736;28;20059;-73
2022/07/13 04:15:29;;;;;;;2.03;1.40;;;22.30;62.70;;;;;;5050290;28;20087;-73
2022/07/13 04:17:55;;;;;;;1.50;1.40;;;22.30;62.60;;;;;;5050056;28;20048;-74
2022/07/13 04:20:22;;;;;;;2.00;1.40;;;22.30;62.70;;;;;;5050834;28;20621;-73
2022/07/13 04:22:49;;;;;;;1.17;1.08;;;22.30;62.60;;;;;;5050679;28;20463;-74
2022/07/13 04:25:15;;;;;;;1.38;1.20;;;22.50;62.70;;;;;;5050483;28;20135;-74
2022/07/13 04:27:42;;;;;;;1.30;1.20;;;22.20;62.60;;;;;;5051731;28;20127;-74
2022/07/13 04:30:10;;;;;;;1.40;1.30;;;22.30;62.60;;;;;;5050326;28;20103;-73
2022/07/13 04:32:38;;;;;;;1.90;1.48;;;22.30;62.60;;;;;;5065999;28;20654;-74
2022/07/13 04:35:06;;;;;;;1.40;1.30;;;22.20;64.10;;;;;;5048580;28;20063;-73
2022/07/13 04:37:34;;;;;;;1.55;1.35;;;22.30;62.60;;;;;;5050061;28;20140;-73
2022/07/13 04:40:01;;;;;;;1.77;1.40;;;22.20;63.10;;;;;;5049819;28;20135;-73
2022/07/13 04:42:28;;;;;;;1.70;1.48;;;22.30;62.60;;;;;;5050855;28;20387;-73
2022/07/13 04:44:54;;;;;;;1.30;1.10;;;22.20;62.60;;;;;;5050788;28;20045;-73
2022/07/13 04:47:21;;;;;;;2.03;1.33;;;22.20;62.50;;;;;;5049645;28;20056;-74
2022/07/13 04:49:49;;;;;;;1.50;1.40;;;22.50;62.50;;;;;;5050630;28;20053;-74
2022/07/13 04:52:16;;;;;;;1.70;1.35;;;22.20;62.50;;;;;;5049661;28;20057;-74
2022/07/13 04:54:42;;;;;;;1.48;1.25;;;22.20;62.50;;;;;;5050840;28;20416;-74
2022/07/13 04:57:09;;;;;;;2.20;1.67;;;22.20;64.10;;;;;;5049832;28;20063;-74
2022/07/13 04:59:36;;;;;;;1.40;1.30;;;22.20;62.50;;;;;;5049424;28;20059;-74
2022/07/13 05:02:02;;;;;;;1.40;1.25;;;22.20;62.50;;;;;;5049273;28;20045;-73
2022/07/13 05:04:29;;;;;;;1.42;1.33;;;22.30;62.50;;;;;;5049304;28;20135;-73
2022/07/13 05:06:58;;;;;;;1.40;1.30;;;21.90;62.30;;;;;;5049712;28;20060;-73
2022/07/13 05:09:25;;;;;;;1.30;1.20;;;22.20;62.50;;;;;;5049415;28;20187;-74
2022/07/13 05:11:52;;;;;;;2.00;1.30;;;22.30;62.60;;;;;;5049256;28;20063;-73
2022/07/13 05:14:19;;;;;;;1.40;1.30;;;22.30;62.60;;;;;;5049973;28;20123;-74
2022/07/13 05:16:45;;;;;;;1.38;1.27;;;22.30;62.50;;;;;;5049674;28;20057;-73
2022/07/13 05:19:12;;;;;;;1.70;1.40;;;22.30;62.50;;;;;;5048613;28;20063;-73
2022/07/13 05:21:39;;;;;;;2.58;1.40;;;22.20;62.60;;;;;;5065550;28;20045;-73
2022/07/13 05:24:07;;;;;;;11.93;5.25;;;22.30;62.70;;;;;;5048927;28;20056;-73
2022/07/13 05:26:34;;;;;;;6.40;4.05;;;22.30;63.50;;;;;;5049010;28;20048;-73
2022/07/13 05:29:04;;;;;;;4.55;3.33;;;22.30;63.70;;;;;;5049053;28;20053;-74
2022/07/13 05:31:31;;;;;;;4.90;2.80;;;22.30;63.70;;;;;;5050127;28;20049;-73
2022/07/13 05:33:58;;;;;;;3.65;2.90;;;22.30;63.70;;;;;;5049034;28;20482;-73
2022/07/13 05:36:24;;;;;;;3.28;2.90;;;22.30;63.80;;;;;;5048696;28;20473;-73
2022/07/13 05:38:51;;;;;;;4.80;2.80;;;22.30;63.80;;;;;;5049039;28;20056;-73
2022/07/13 05:41:19;;;;;;;3.03;2.38;;;22.40;64.10;;;;;;5048575;28;20059;-73
2022/07/13 05:43:47;;;;;;;3.20;2.50;;;22.30;63.80;;;;;;5048732;28;20059;-73
2022/07/13 05:46:13;;;;;;;3.25;2.30;;;22.30;63.80;;;;;;5048563;28;20053;-73
2022/07/13 05:48:40;;;;;;;5.30;2.75;;;22.30;63.90;;;;;;5048479;28;20067;-74
2022/07/13 05:51:07;;;;;;;3.47;2.50;;;22.30;63.80;;;;;;5049706;28;20502;-72
2022/07/13 05:53:33;;;;;;;5.82;2.22;;;22.20;63.80;;;;;;5048112;28;20076;-72
2022/07/13 05:56:00;;;;;;;6.20;2.50;;;22.40;63.90;;;;;;5048886;28;20056;-72
2022/07/13 05:58:28;;;;;;;8.55;3.03;;;22.30;64.00;;;;;;5048518;28;20156;-72
2022/07/13 06:00:55;;;;;;;2.88;2.20;;;22.20;65.40;;;;;;5047287;28;20533;-72
2022/07/13 06:03:22;;;;;;;3.13;2.70;;;22.30;64.00;;;;;;5048316;28;20061;-72
2022/07/13 06:05:48;;;;;;;5.10;2.72;;;22.30;64.50;;;;;;5048631;28;20127;-72
2022/07/13 06:08:15;;;;;;;3.30;2.42;;;22.30;63.90;;;;;;5048259;28;20079;-72
2022/07/13 06:10:42;;;;;;;2.88;2.55;;;22.30;63.90;;;;;;5049493;28;20063;-72
2022/07/13 06:13:08;;;;;;;3.28;2.50;;;22.30;63.80;;;;;;5047848;28;20128;-72
2022/07/13 06:15:37;;;;;;;4.00;2.72;;;22.40;63.90;;;;;;5044803;28;20140;-72
2022/07/13 06:18:05;;;;;;;4.00;2.72;;;22.30;63.80;;;;;;5046991;28;20057;-72
2022/07/13 06:20:32;;;;;;;3.55;2.28;;;22.30;63.80;;;;;;5047260;28;20052;-72
2022/07/13 06:25:46;;;;;;;2.85;2.28;;;22.30;63.70;;;;;;5042254;28;20053;-71
2022/07/13 06:28:13;;;;;;;3.25;2.40;;;22.40;63.70;;;;;;5048281;28;20060;-71
2022/07/13 06:30:41;;;;;;;3.25;2.40;;;22.40;63.60;;;;;;5047502;28;20135;-71
2022/07/13 06:33:08;;;;;;;4.00;2.20;;;22.40;63.60;;;;;;5047670;28;20072;-71
2022/07/13 06:35:34;;;;;;;3.72;2.40;;;22.40;63.50;;;;;;5048041;28;20049;-72
2022/07/13 06:38:01;;;;;;;4.13;2.30;;;22.40;63.60;;;;;;5048335;28;20053;-72
2022/07/13 06:40:28;;;;;;;2.47;2.28;;;20.90;62.80;;;;;;5049124;28;20045;-72
2022/07/13 06:42:54;;;;;;;3.60;2.20;;;22.50;63.70;;;;;;5047681;28;20059;-72
2022/07/13 06:45:22;;;;;;;2.55;2.13;;;22.50;63.60;;;;;;5047543;28;20057;-71
2022/07/13 06:47:51;;;;;;;5.03;2.10;;;22.50;63.60;;;;;;5047840;28;20076;-71
2022/07/13 06:50:18;;;;;;;3.50;2.10;;;22.50;63.60;;;;;;5047956;28;20044;-71
2022/07/13 06:52:45;;;;;;;2.45;2.00;;;22.50;63.60;;;;;;5046983;28;20175;-71
2022/07/13 06:55:11;;;;;;;4.75;2.40;;;22.50;63.50;;;;;;5046800;28;20045;-71
2022/07/13 06:57:38;;;;;;;3.33;2.10;;;22.50;63.40;;;;;;5047556;28;20074;-71
2022/07/13 07:00:06;;;;;;;4.10;2.25;;;22.50;63.20;;;;;;5044361;28;20737;-71
2022/07/13 07:02:33;;;;;;;3.55;2.10;;;22.50;63.30;;;;;;5046261;28;20063;-71
2022/07/13 07:05:01;;;;;;;3.42;2.10;;;22.50;63.70;;;;;;5046993;28;20141;-71
2022/07/13 07:07:28;;;;;;;3.03;2.28;;;22.60;63.20;;;;;;5047033;28;20041;-71
2022/07/13 07:09:55;;;;;;;5.57;2.15;;;22.60;63.00;;;;;;5047224;28;20055;-71
2022/07/13 07:12:22;;;;;;;2.85;2.30;;;22.60;62.80;;;;;;5047626;28;20072;-71
2022/07/13 07:14:50;;;;;;;2.65;1.90;;;22.60;62.70;;;;;;5047035;28;20059;-73
2022/07/13 07:17:17;;;;;;;4.43;2.20;;;22.70;62.70;;;;;;5046612;28;20483;-72
2022/07/13 07:19:44;;;;;;;2.45;2.00;;;22.70;62.60;;;;;;5047534;28;20064;-72
2022/07/13 07:22:12;;;;;;;3.40;2.08;;;22.70;62.50;;;;;;5046818;28;20056;-72
2022/07/13 07:24:39;;;;;;;6.55;2.30;;;22.80;62.50;;;;;;5046943;28;20052;-72
2022/07/13 07:27:07;;;;;;;2.35;2.00;;;22.80;62.30;;;;;;5046446;28;20051;-72
2022/07/13 07:29:34;;;;;;;2.78;1.95;;;22.90;62.30;;;;;;5047025;28;20060;-72
2022/07/13 07:32:01;;;;;;;2.13;1.90;;;23.00;62.30;;;;;;5047170;28;20717;-72
2022/07/13 07:34:28;;;;;;;4.15;2.20;;;23.00;62.30;;;;;;5046909;28;20106;-72
2022/07/13 07:36:55;;;;;;;3.15;2.03;;;23.10;62.20;;;;;;5047387;28;20049;-72
2022/07/13 07:39:24;;;;;;;6.15;2.20;;;23.20;62.10;;;;;;5046901;28;20212;-72
2022/07/13 07:41:51;;;;;;;4.40;1.80;;;23.20;62.20;;;;;;5047721;28;20075;-72
2022/07/13 07:44:18;;;;;;;4.72;2.10;;;23.20;62.20;;;;;;5047233;28;20136;-72
2022/07/13 07:46:45;;;;;;;4.38;2.30;;;23.30;62.00;;;;;;5046475;28;20103;-72
2022/07/13 07:49:12;;;;;;;3.83;2.10;;;23.40;62.00;;;;;;5047925;28;20057;-72
2022/07/13 07:51:39;;;;;;;4.32;2.00;;;23.50;62.10;;;;;;5046643;28;20083;-72
2022/07/13 07:54:06;;;;;;;3.75;2.00;;;23.60;62.00;;;;;;5046534;28;20519;-72
2022/07/13 07:56:34;;;;;;;2.70;2.22;;;23.60;62.00;;;;;;5048224;28;20075;-72
2022/07/13 07:59:01;;;;;;;4.68;1.80;;;23.70;61.90;;;;;;5047072;28;20540;-72
2022/07/13 08:01:28;;;;;;;3.78;2.08;;;23.70;61.80;;;;;;5045096;28;20049;-72
2022/07/13 08:03:55;;;;;;;4.10;2.08;;;23.80;61.90;;;;;;5045331;28;20052;-72
2022/07/13 08:06:22;;;;;;;3.70;1.95;;;23.90;61.90;;;;;;5046182;28;20132;-72
2022/07/13 08:08:49;;;;;;;2.55;1.77;;;24.00;61.90;;;;;;5049882;28;20540;-72
2022/07/13 08:11:17;;;;;;;2.50;1.70;;;24.00;61.80;;;;;;5050789;28;20083;-72
2022/07/13 08:13:46;;;;;;;4.30;1.88;;;24.10;61.70;;;;;;5050327;28;20056;-72
2022/07/13 08:16:13;;;;;;;2.20;1.90;;;24.20;61.60;;;;;;5049831;28;20057;-72
2022/07/13 08:18:40;;;;;;;2.72;1.98;;;24.20;61.50;;;;;;5049826;28;20059;-72
2022/07/13 08:21:06;;;;;;;5.75;2.22;;;24.30;61.50;;;;;;5050537;28;20052;-72
2022/07/13 08:26:17;;;;;;;2.47;1.77;;;24.40;61.90;;;;;;5067120;28;20061;-74
2022/07/13 08:28:45;;;;;;;3.05;1.90;;;24.40;61.30;;;;;;5050570;28;20049;-71
2022/07/13 08:31:12;;;;;;;2.30;1.88;;;24.50;61.20;;;;;;5050036;28;20136;-72
2022/07/13 08:39:07;;;;;;;2.67;2.00;;;24.60;61.10;;;;;;5066686;28;20037;-72
2022/07/13 08:41:34;;;;;;;2.25;1.83;;;24.60;61.00;;;;;;5049992;28;20048;-72
2022/07/13 08:44:02;;;;;;;2.05;1.75;;;24.70;61.10;;;;;;5050059;28;20062;-72
2022/07/13 08:46:30;;;;;;;2.33;1.80;;;24.70;60.90;;;;;;5049733;28;20136;-73
2022/07/13 08:48:57;;;;;;;3.47;1.90;;;24.90;60.90;;;;;;5049915;28;20159;-73
2022/07/13 08:51:24;;;;;;;2.20;1.65;;;24.80;60.80;;;;;;5050979;28;20056;-73
2022/07/13 08:53:51;;;;;;;1.98;1.70;;;24.80;60.80;;;;;;5048335;28;20049;-73
2022/07/13 08:56:18;;;;;;;2.53;1.60;;;24.80;60.70;;;;;;5049918;28;20155;-73
2022/07/13 08:58:44;;;;;;;2.17;1.98;;;24.90;60.70;;;;;;5049114;28;20055;-73
2022/07/13 09:01:14;;;;;;;2.63;2.05;;;24.90;60.70;;;;;;5048764;28;20506;-73
2022/07/13 09:03:41;;;;;;;2.00;1.80;;;25.00;60.70;;;;;;5049966;28;20048;-74
2022/07/13 09:06:08;;;;;;;3.10;1.80;;;25.00;60.60;;;;;;5049429;28;20512;-72
2022/07/13 09:08:41;;;;;;;2.90;1.98;;;25.10;60.60;;;;;;5049514;28;20140;-72
2022/07/13 09:11:08;;;;;;;3.00;2.10;;;25.00;60.50;;;;;;5048573;28;20434;-72
2022/07/13 09:13:39;;;;;;;4.40;2.20;;;25.10;60.50;;;;;;5048858;28;20053;-72
2022/07/13 09:16:14;;;;;;;2.60;2.00;;;25.10;60.50;;;;;;5048267;28;20052;-72
2022/07/13 09:18:41;;;;;;;2.25;2.00;;;25.20;60.50;;;;;;5046286;28;20061;-72
2022/07/13 09:21:08;;;;;;;2.47;1.80;;;25.20;60.40;;;;;;5064709;28;20076;-72
2022/07/13 09:23:35;;;;;;;2.42;1.90;;;25.20;60.30;;;;;;5048584;28;20064;-72
2022/07/13 09:26:02;;;;;;;2.30;1.95;;;25.30;60.40;;;;;;5049410;28;20144;-72
2022/07/13 09:28:29;;;;;;;2.60;1.92;;;25.30;60.30;;;;;;5049050;28;20053;-72
2022/07/13 09:31:00;;;;;;;3.08;2.00;;;25.30;60.30;;;;;;5047703;28;20056;-72
2022/07/13 09:33:34;;;;;;;2.70;1.83;;;25.30;60.30;;;;;;5049658;28;20063;-72
2022/07/13 09:36:08;;;;;;;2.75;1.90;;;25.30;60.30;;;;;;5046862;28;20129;-74
2022/07/13 09:38:36;;;;;;;3.23;1.73;;;25.40;60.30;;;;;;5049393;28;20048;-72
2022/07/13 09:41:17;;;;;;;3.90;2.30;;;25.40;60.30;;;;;;5048122;28;20052;-72
2022/07/13 09:46:56;;;;;;;2.25;1.60;;;25.40;60.40;;;;;;5049169;28;20049;-72
2022/07/13 09:49:31;;;;;;;2.60;1.90;;;25.50;60.40;;;;;;5048866;28;20139;-72
2022/07/13 09:51:58;;;;;;;3.47;2.20;;;25.50;60.40;;;;;;5047803;28;20051;-72
2022/07/13 09:54:26;;;;;;;3.60;2.20;;;25.50;60.40;;;;;;5047871;28;20053;-73
2022/07/13 09:56:53;;;;;;;3.95;2.00;;;25.40;60.20;;;;;;5049220;28;20066;-72
2022/07/13 09:59:20;;;;;;;2.33;2.13;;;25.50;60.30;;;;;;5049350;28;20051;-71
2022/07/13 10:01:47;;;;;;;2.10;1.83;;;25.50;60.20;;;;;;5047860;28;20056;-72
2022/07/13 10:04:13;;;;;;;2.22;2.00;;;25.50;60.20;;;;;;5049347;28;20485;-72
2022/07/13 10:06:42;;;;;;;2.25;1.73;;;25.50;60.20;;;;;;5047984;28;20057;-73
2022/07/13 10:09:08;;;;;;;2.38;2.13;;;25.50;60.20;;;;;;5047795;28;20048;-73
2022/07/13 10:11:35;;;;;;;3.67;2.00;;;25.50;60.20;;;;;;5048150;28;20568;-73
2022/07/13 10:14:02;;;;;;;2.42;2.05;;;25.50;60.20;;;;;;5048014;28;20209;-73
2022/07/13 10:16:29;;;;;;;3.50;1.95;;;25.50;60.10;;;;;;5049272;28;20524;-73
2022/07/13 10:18:55;;;;;;;4.03;2.25;;;25.50;60.10;;;;;;5048168;28;20056;-73
2022/07/13 10:21:26;;;;;;;5.35;2.35;;;25.50;60.10;;;;;;5048054;28;20063;-73
2022/07/13 10:23:54;;;;;;;5.32;2.33;;;25.50;60.10;;;;;;5049326;28;20055;-73
2022/07/13 10:26:22;;;;;;;3.40;2.40;;;25.50;60.10;;;;;;5047709;28;20057;-73
2022/07/13 10:29:02;;;;;;;2.55;2.10;;;25.50;60.00;;;;;;5047928;28;20053;-73
2022/07/13 10:31:29;;;;;;;9.25;2.50;;;25.50;60.10;;;;;;5046658;28;20124;-73
2022/07/13 10:33:56;;;;;;;2.72;2.22;;;25.50;60.00;;;;;;5047599;28;20152;-72
2022/07/13 10:36:50;;;;;;;2.50;2.15;;;25.50;60.00;;;;;;5047580;28;20063;-72
2022/07/13 10:39:18;;;;;;;4.95;2.20;;;25.50;60.00;;;;;;5037823;28;20459;-72
2022/07/13 10:41:59;;;;;;;3.53;2.60;;;25.50;60.00;;;;;;5047531;28;20045;-73
2022/07/13 10:44:37;;;;;;;3.42;2.13;;;25.50;60.00;;;;;;5048157;28;20064;-72
2022/07/13 10:47:04;;;;;;;3.40;2.40;;;25.50;60.00;;;;;;5047694;28;20060;-73
2022/07/13 10:49:39;;;;;;;2.70;2.35;;;25.50;60.00;;;;;;5048833;28;20041;-73
2022/07/13 10:52:50;;;;;;;3.00;2.10;;;25.50;59.90;;;;;;5047089;28;20524;-71
2022/07/13 10:55:37;;;;;;;3.10;2.35;;;25.50;59.90;;;;;;5047228;28;20135;-72
2022/07/13 10:58:42;;;;;;;4.00;2.15;;;25.50;60.00;;;;;;5046385;28;20513;-73
2022/07/13 11:01:36;;;;;;;3.67;2.05;;;25.50;59.90;;;;;;5047744;28;20486;-71
2022/07/13 11:04:02;;;;;;;3.00;2.00;;;25.50;59.90;;;;;;5037531;28;20292;-72
2022/07/13 11:06:29;;;;;;;2.60;2.00;;;25.50;60.00;;;;;;5047046;28;20491;-72
2022/07/13 11:09:18;;;;;;;2.55;2.20;;;25.40;59.90;;;;;;5046961;28;20052;-72
2022/07/13 11:11:51;;;;;;;4.50;2.30;;;25.50;60.00;;;;;;5046874;28;20059;-72
2022/07/13 11:15:00;;;;;;;2.50;1.90;;;25.50;60.00;;;;;;5047230;28;20053;-72
2022/07/13 11:17:28;;;;;;;3.25;2.17;;;25.40;59.90;;;;;;5045878;28;20075;-72
2022/07/13 11:19:56;;;;;;;6.28;2.10;;;25.40;60.00;;;;;;5047328;28;20049;-72
2022/07/13 11:22:23;;;;;;;2.33;2.00;;;25.40;60.00;;;;;;5046696;28;20045;-71
2022/07/13 11:25:14;;;;;;;4.47;2.15;;;25.40;60.10;;;;;;5047050;28;20071;-72
2022/07/13 11:27:52;;;;;;;3.63;2.05;;;25.40;60.60;;;;;;5046485;28;20099;-71
2022/07/13 11:30:18;;;;;;;3.42;2.00;;;25.40;60.10;;;;;;5047678;28;20139;-71
2022/07/13 11:32:45;;;;;;;4.75;2.50;;;25.40;60.70;;;;;;5048617;28;20064;-72
2022/07/13 11:35:12;;;;;;;2.50;1.80;;;25.40;60.10;;;;;;5047105;28;20045;-72
2022/07/13 11:37:39;;;;;;;4.30;2.00;;;25.40;60.20;;;;;;5046866;28;20053;-71
2022/07/13 11:40:07;;;;;;;3.67;2.10;;;25.40;60.10;;;;;;5063203;28;20056;-72
2022/07/13 11:42:34;;;;;;;3.00;1.90;;;25.40;60.10;;;;;;5063132;28;20041;-72
2022/07/13 11:45:02;;;;;;;3.70;1.90;;;25.50;60.10;;;;;;5050615;28;20594;-71
2022/07/13 11:47:29;;;;;;;2.83;2.10;;;25.50;60.10;;;;;;5050355;28;20140;-72
2022/07/13 11:49:55;;;;;;;3.60;1.65;;;25.50;60.20;;;;;;5050500;28;20053;-73
2022/07/13 11:52:23;;;;;;;2.78;2.28;;;25.50;60.20;;;;;;5051969;28;20049;-72
2022/07/13 11:54:57;;;;;;;4.00;1.85;;;25.50;60.40;;;;;;5050748;28;20452;-72
2022/07/13 11:57:24;;;;;;;3.10;1.95;;;25.50;60.50;;;;;;5050408;28;20052;-72
2022/07/13 11:59:51;;;;;;;2.22;1.80;;;25.50;60.60;;;;;;5050400;28;20068;-73
2022/07/13 12:02:19;;;;;;;2.20;2.00;;;25.60;60.80;;;;;;5050190;28;20052;-73
2022/07/13 12:04:47;;;;;;;2.92;2.08;;;25.50;60.80;;;;;;5050589;28;20082;-73
2022/07/13 12:07:14;;;;;;;2.70;1.92;;;25.60;61.00;;;;;;5050825;28;20156;-73
2022/07/13 12:09:51;;;;;;;2.20;2.00;;;25.60;61.20;;;;;;5050571;28;20056;-73
2022/07/13 12:12:19;;;;;;;3.90;1.80;;;25.60;61.10;;;;;;5050200;28;20053;-72
2022/07/13 12:14:46;;;;;;;4.40;2.00;;;25.60;61.20;;;;;;5050091;28;20057;-72
2022/07/13 12:17:12;;;;;;;4.35;1.95;;;25.50;61.30;;;;;;5050299;28;20131;-72
2022/07/13 12:19:40;;;;;;;2.35;1.80;;;25.70;61.50;;;;;;5050592;28;20067;-72
2022/07/13 12:22:08;;;;;;;5.22;2.10;;;25.60;61.50;;;;;;5051211;28;20131;-72
2022/07/13 12:24:35;;;;;;;2.22;1.80;;;25.90;61.80;;;;;;5050060;28;20049;-72
2022/07/13 12:27:02;;;;;;;3.58;2.00;;;25.60;61.70;;;;;;5050214;28;20061;-72
2022/07/13 12:29:29;;;;;;;3.53;1.90;;;25.60;61.70;;;;;;5051069;28;20521;-72
2022/07/13 12:31:56;;;;;;;3.40;1.90;;;25.60;61.60;;;;;;5050066;28;20135;-72
2022/07/13 12:34:23;;;;;;;2.25;1.85;;;25.60;61.70;;;;;;5050638;28;20051;-72
2022/07/13 12:36:51;;;;;;;2.63;1.95;;;25.60;61.60;;;;;;5049900;28;20057;-71
2022/07/13 12:39:20;;;;;;;2.47;2.13;;;25.70;61.70;;;;;;5050107;28;20053;-72
2022/07/13 12:41:55;;;;;;;2.25;1.73;;;25.70;61.70;;;;;;5049449;28;20041;-72
2022/07/13 12:44:26;;;;;;;2.13;1.90;;;25.70;61.70;;;;;;5049180;28;20041;-72
2022/07/13 12:46:55;;;;;;;2.00;1.80;;;25.70;61.80;;;;;;5049864;28;20148;-72
2022/07/13 12:49:27;;;;;;;2.80;2.03;;;25.70;61.80;;;;;;5066619;28;20057;-72
2022/07/13 12:51:55;;;;;;;2.00;1.80;;;25.70;61.80;;;;;;5049865;28;20504;-72
2022/07/13 12:54:47;;;;;;;2.30;1.90;;;25.70;61.80;;;;;;5048965;28;20053;-72
2022/07/13 12:57:16;;;;;;;4.90;1.90;;;25.70;62.20;;;;;;5049953;28;20138;-71
2022/07/13 13:00:00;;;;;;;2.10;1.90;;;25.70;61.90;;;;;;5049554;28;20060;-72
2022/07/13 13:02:28;;;;;;;3.00;2.00;;;25.70;61.90;;;;;;5048053;28;20421;-72
2022/07/13 13:04:56;;;;;;;2.47;1.80;;;25.70;61.90;;;;;;5048920;28;20128;-72
2022/07/13 13:07:27;;;;;;;2.60;1.90;;;25.70;61.80;;;;;;5049480;28;20057;-72